Jj Sky — VRJA6 — position and weather

sailwx.info

Track history (hours):
 
Tides and Currents Weather Stations Pressure Air Temp Water Temp Dewpoint Dewpoint Depression Visibility Wind Speed Wind Dir Waves Ship Positions

Jj Sky

Last reported at 2014-Sep-17 19:33 UTC. Time now 2014-Sep-17 19:42 UTC.
Position N 35°08' E 139°45'.

Length 148 m; draft 7.5 m.

Type: Ship. MMSI: 477397500.

Date/timePositionNaut miles runAvg speedWind from/ knotsBaromVisibWave heightAir tempDewpointWater temp
2014-Sep-17 19:33N 35°08' E 139°45'  
2014-Sep-15 05:32N 31°18' E 121°46'5 1.5
2014-Sep-15 02:21N 31°20' E 121°40'0 0.0
2014-Sep-15 00:24N 31°20' E 121°40'0 0.0
2014-Sep-14 22:05N 31°20' E 121°40'0 0.0
2014-Sep-14 20:22N 31°20' E 121°40'0 0.0
2014-Sep-14 11:30N 31°20' E 121°40'41 9.5
2014-Sep-14 07:14N 31°05' E 122°25'47615.5
2014-Sep-13 00:33N 31°50' E 131°40'1817.7
2014-Sep-12 23:33N 32°06' E 131°47'1818.0
2014-Sep-12 22:33N 32°15' E 132°06'41417.7
2014-Sep-11 23:07N 35°03' E 139°39'916.9
2014-Sep-11 22:33N 35°11' E 139°46'1313.5
2014-Sep-11 21:34N 35°24' E 139°43'3 3.2
2014-Sep-11 20:31N 35°27' E 139°41'0 0.0
2014-Sep-11 19:31N 35°27' E 139°41'0 0.0
2014-Sep-11 18:31N 35°27' E 139°41'0 0.0
2014-Sep-11 17:30N 35°27' E 139°41'0 0.0
2014-Sep-11 16:30N 35°27' E 139°41'0 0.0
2014-Sep-11 15:29N 35°27' E 139°41'0 0.0
2014-Sep-11 14:29N 35°27' E 139°41'0 0.0
2014-Sep-11 13:28N 35°27' E 139°41'0 0.0
2014-Sep-11 12:16N 35°27' E 139°41'0 0.1
2014-Sep-11 11:31N 35°27' E 139°41'0 0.0
2014-Sep-11 10:33N 35°27' E 139°41'0 0.0
2014-Sep-11 09:33N 35°27' E 139°41'6 6.0
2014-Sep-11 08:33N 35°28' E 139°49'10 8.9
2014-Sep-11 07:29N 35°37' E 139°46'0 0.0
2014-Sep-11 06:28N 35°37' E 139°46'0 0.0
2014-Sep-11 05:31N 35°37' E 139°46'0 0.0
2014-Sep-11 04:33N 35°37' E 139°46'0 0.0
2014-Sep-11 03:33N 35°37' E 139°46'0 0.0
2014-Sep-11 02:32N 35°37' E 139°46'0 0.0
2014-Sep-11 01:32N 35°37' E 139°46'0 0.0
2014-Sep-11 00:26N 35°37' E 139°46'0 0.0
2014-Sep-10 23:19N 35°37' E 139°46'0 0.0
2014-Sep-10 22:25N 35°37' E 139°46'6 7.0
2014-Sep-10 21:33N 35°33' E 139°51'1211.7
2014-Sep-10 20:33N 35°22' E 139°45'1111.1
2014-Sep-10 19:33N 35°11' E 139°47'33915.8
2014-Sep-09 22:04N 32°39' E 133°42'917.9
2014-Sep-09 21:34N 32°35' E 133°32'1818.1
2014-Sep-09 20:34N 32°26' E 133°13'58915.0
2014-Sep-08 05:22N 31°19' E 121°45'4 3.2
2014-Sep-08 04:09N 31°20' E 121°40'0 0.0
2014-Sep-07 22:06N 31°20' E 121°40'  
Track history (hours):
 
Tides and Currents Weather Stations Pressure Air Temp Water Temp Dewpoint Dewpoint Depression Visibility Wind Speed Wind Dir Waves Ship Positions

Jj Sky

Last reported at 2014-Sep-17 19:33 UTC. Time now 2014-Sep-17 19:42 UTC.
Position N 35°08' E 139°45'.

Length 148 m; draft 7.5 m.

Type: Ship. MMSI: 477397500.

Date/timePositionNaut miles runAvg speedWind from/ knotsBaromVisibWave heightAir tempDewpointWater temp
2014-Sep-17 19:33N 35°08' E 139°45'  
2014-Sep-15 05:32N 31°18' E 121°46'5 1.5
2014-Sep-15 02:21N 31°20' E 121°40'0 0.0
2014-Sep-15 00:24N 31°20' E 121°40'0 0.0
2014-Sep-14 22:05N 31°20' E 121°40'0 0.0
2014-Sep-14 20:22N 31°20' E 121°40'0 0.0
2014-Sep-14 11:30N 31°20' E 121°40'41 9.5
2014-Sep-14 07:14N 31°05' E 122°25'47615.5
2014-Sep-13 00:33N 31°50' E 131°40'1817.7
2014-Sep-12 23:33N 32°06' E 131°47'1818.0
2014-Sep-12 22:33N 32°15' E 132°06'41417.7
2014-Sep-11 23:07N 35°03' E 139°39'916.9
2014-Sep-11 22:33N 35°11' E 139°46'1313.5
2014-Sep-11 21:34N 35°24' E 139°43'3 3.2
2014-Sep-11 20:31N 35°27' E 139°41'0 0.0
2014-Sep-11 19:31N 35°27' E 139°41'0 0.0
2014-Sep-11 18:31N 35°27' E 139°41'0 0.0
2014-Sep-11 17:30N 35°27' E 139°41'0 0.0
2014-Sep-11 16:30N 35°27' E 139°41'0 0.0
2014-Sep-11 15:29N 35°27' E 139°41'0 0.0
2014-Sep-11 14:29N 35°27' E 139°41'0 0.0
2014-Sep-11 13:28N 35°27' E 139°41'0 0.0
2014-Sep-11 12:16N 35°27' E 139°41'0 0.1
2014-Sep-11 11:31N 35°27' E 139°41'0 0.0
2014-Sep-11 10:33N 35°27' E 139°41'0 0.0
2014-Sep-11 09:33N 35°27' E 139°41'6 6.0
2014-Sep-11 08:33N 35°28' E 139°49'10 8.9
2014-Sep-11 07:29N 35°37' E 139°46'0 0.0
2014-Sep-11 06:28N 35°37' E 139°46'0 0.0
2014-Sep-11 05:31N 35°37' E 139°46'0 0.0
2014-Sep-11 04:33N 35°37' E 139°46'0 0.0
2014-Sep-11 03:33N 35°37' E 139°46'0 0.0
2014-Sep-11 02:32N 35°37' E 139°46'0 0.0
2014-Sep-11 01:32N 35°37' E 139°46'0 0.0
2014-Sep-11 00:26N 35°37' E 139°46'0 0.0
2014-Sep-10 23:19N 35°37' E 139°46'0 0.0
2014-Sep-10 22:25N 35°37' E 139°46'6 7.0
2014-Sep-10 21:33N 35°33' E 139°51'1211.7
2014-Sep-10 20:33N 35°22' E 139°45'1111.1
2014-Sep-10 19:33N 35°11' E 139°47'33915.8
2014-Sep-09 22:04N 32°39' E 133°42'917.9
2014-Sep-09 21:34N 32°35' E 133°32'1818.1
2014-Sep-09 20:34N 32°26' E 133°13'58915.0
2014-Sep-08 05:22N 31°19' E 121°45'4 3.2
2014-Sep-08 04:09N 31°20' E 121°40'0 0.0
2014-Sep-07 22:06N 31°20' E 121°40'  

Dump ship's entire track history